Time;durP1;ratioP1;P1;durP2;ratioP2;P2;SDS_P1;SDS_P2;PMS_P1;PMS_P2;Temp;Humidity;BMP_temperature;BMP_pressure;BME280_temperature;BME280_humidity;BME280_pressure;Samples;Min_cycle;Max_cycle;Signal;HPM_P1;HPM_P2
2022/01/08 00:02:56;;;;;;;5.77;2.77;;;;;;;-7.22;80.79;97685.19;6244877;28;20234;-72
2022/01/08 00:05:59;;;;;;;4.23;2.83;;;;;;;-7.07;82.06;97684.16;6254118;28;20245;-73
2022/01/08 00:09:01;;;;;;;5.30;3.00;;;;;;;-6.93;81.96;97684.88;6253506;28;20228;-72
2022/01/08 00:12:03;;;;;;;6.77;3.37;;;;;;;-6.78;82.07;97687.25;6253913;28;20222;-72
2022/01/08 00:15:06;;;;;;;4.50;2.80;;;;;;;-6.63;81.63;97682.81;6254836;28;20235;-73
2022/01/08 00:18:08;;;;;;;5.13;2.93;;;;;;;-6.50;81.24;97671.53;6249756;28;20238;-73
2022/01/08 00:21:10;;;;;;;4.50;3.03;;;;;;;-6.37;81.51;97673.91;6255043;28;20223;-73
2022/01/08 00:24:12;;;;;;;5.27;3.03;;;;;;;-6.27;81.25;97673.75;6255616;28;20722;-73
2022/01/08 00:27:14;;;;;;;5.77;3.23;;;;;;;-6.17;81.44;97668.47;6253417;28;20214;-73
2022/01/08 00:30:17;;;;;;;5.40;3.53;;;;;;;-6.09;81.04;97661.50;6253783;28;20201;-74
2022/01/08 00:33:20;;;;;;;4.97;3.10;;;;;;;-6.05;81.11;97658.03;6254954;28;20221;-73
2022/01/08 00:36:22;;;;;;;5.57;2.97;;;;;;;-6.00;81.05;97653.69;6230414;28;20238;-73
2022/01/08 00:39:24;;;;;;;8.33;3.17;;;;;;;-5.93;80.91;97653.56;6206171;28;20224;-74
2022/01/08 00:42:26;;;;;;;5.30;3.03;;;;;;;-5.87;80.71;97653.44;6246356;28;20264;-71
2022/01/08 00:45:28;;;;;;;5.50;3.00;;;;;;;-5.81;80.67;97649.06;6251329;28;20231;-73
2022/01/08 00:48:30;;;;;;;6.80;3.30;;;;;;;-5.77;80.35;97653.25;6229300;28;20227;-73
2022/01/08 00:51:33;;;;;;;7.03;2.93;;;;;;;-5.71;80.41;97647.19;6230289;28;20223;-73
2022/01/08 00:54:36;;;;;;;6.63;2.93;;;;;;;-5.66;80.69;97638.50;6237224;28;20226;-73
2022/01/08 00:57:39;;;;;;;4.77;2.90;;;;;;;-5.60;80.67;97646.13;6254919;28;20219;-73
2022/01/08 01:00:41;;;;;;;4.23;2.90;;;;;;;-5.51;80.22;97644.28;6252377;28;20230;-73
2022/01/08 01:03:43;;;;;;;5.53;3.13;;;;;;;-5.48;80.25;97637.34;6254677;28;20229;-73
2022/01/08 01:06:45;;;;;;;4.30;3.03;;;;;;;-5.44;79.75;97643.28;6254086;28;20736;-73
2022/01/08 01:09:47;;;;;;;5.33;3.10;;;;;;;-5.38;79.75;97635.44;6252221;28;20227;-73
2022/01/08 01:12:49;;;;;;;6.23;2.90;;;;;;;-5.32;80.11;97635.34;6252738;28;20713;-71
2022/01/08 01:15:51;;;;;;;4.20;2.70;;;;;;;-5.29;79.79;97633.56;6246374;28;20777;-73
2022/01/08 01:18:54;;;;;;;5.23;2.73;;;;;;;-5.23;79.50;97627.47;6220902;28;20226;-73
2022/01/08 01:21:59;;;;;;;5.10;2.70;;;;;;;-5.22;79.82;97624.88;6252390;28;20223;-74
2022/01/08 01:25:05;;;;;;;4.83;2.87;;;;;;;-5.18;78.94;97625.63;6252801;28;20246;-74
2022/01/08 01:28:26;;;;;;;4.80;2.60;;;;;;;-5.17;79.46;97624.78;6253749;28;20238;-72
2022/01/08 01:41:46;;;;;;;6.37;3.67;;;;;;;-4.99;78.92;97623.59;6203274;28;20233;-74
2022/01/08 01:48:22;;;;;;;10.40;3.73;;;;;;;-4.92;78.68;97620.84;6239836;28;20227;-73
2022/01/08 01:51:25;;;;;;;6.13;4.03;;;;;;;-4.88;78.29;97616.47;6228686;28;20714;-73
2022/01/08 01:54:28;;;;;;;6.30;3.77;;;;;;;-4.87;78.22;97611.31;6246301;28;20226;-70
2022/01/08 01:57:31;;;;;;;5.93;3.77;;;;;;;-4.84;78.58;97607.81;6251525;28;20268;-73
2022/01/08 02:00:34;;;;;;;6.23;3.10;;;;;;;-4.81;78.09;97604.34;6251662;28;20234;-73
2022/01/08 02:03:36;;;;;;;6.37;3.47;;;;;;;-4.77;78.45;97600.81;6253149;28;20234;-73
2022/01/08 02:06:38;;;;;;;5.50;3.20;;;;;;;-4.72;78.24;97601.56;6252349;28;20243;-74
2022/01/08 02:09:41;;;;;;;7.47;3.67;;;;;;;-4.67;78.00;97600.59;6251622;28;20701;-73
2022/01/08 02:12:42;;;;;;;5.17;4.00;;;;;;;-4.63;78.01;97598.81;6253398;28;20647;-73
2022/01/08 02:15:49;;;;;;;5.10;2.97;;;;;;;-4.60;78.16;97591.88;6244438;28;20236;-73
2022/01/08 02:18:51;;;;;;;5.70;3.33;;;;;;;-4.57;78.22;97589.22;6248825;28;20234;-74
2022/01/08 02:21:57;;;;;;;6.93;3.37;;;;;;;-4.55;77.88;97587.44;6252018;28;20723;-73
2022/01/08 02:24:59;;;;;;;5.73;3.20;;;;;;;-4.52;77.81;97581.41;6251527;28;20725;-73
2022/01/08 02:28:04;;;;;;;7.43;3.63;;;;;;;-4.51;77.60;97580.53;6252181;28;20710;-73
2022/01/08 02:31:08;;;;;;;4.67;3.00;;;;;;;-4.50;77.64;97570.19;6250964;28;20241;-73
2022/01/08 02:34:09;;;;;;;7.20;3.47;;;;;;;-4.48;77.61;97570.13;6246215;28;20230;-73
2022/01/08 02:37:14;;;;;;;4.83;3.23;;;;;;;-4.46;77.78;97569.22;6230709;28;20230;-73
2022/01/08 02:40:18;;;;;;;5.10;3.33;;;;;;;-4.45;77.59;97562.34;6251457;28;20231;-73
2022/01/08 02:43:20;;;;;;;4.90;3.20;;;;;;;-4.42;77.28;97564.84;6253236;28;20231;-73
2022/01/08 02:46:22;;;;;;;7.20;3.73;;;;;;;-4.40;77.46;97560.53;6239624;28;20250;-74
2022/01/08 02:49:24;;;;;;;4.17;3.30;;;;;;;-4.36;77.69;97558.69;6245247;28;20272;-73
2022/01/08 02:52:26;;;;;;;5.37;3.53;;;;;;;-4.33;77.32;97554.34;6252236;28;20753;-73
2022/01/08 02:55:28;;;;;;;3.67;3.10;;;;;;;-4.29;76.66;97552.56;6251691;28;20737;-73
2022/01/08 02:58:30;;;;;;;6.43;3.27;;;;;;;-4.24;77.40;97548.13;6252420;28;20239;-73
2022/01/08 03:01:34;;;;;;;4.80;3.00;;;;;;;-4.19;76.52;97544.53;6250797;28;20226;-73
2022/01/08 03:04:36;;;;;;;6.93;3.63;;;;;;;-4.15;76.99;97542.75;6251800;28;20231;-73
2022/01/08 03:07:39;;;;;;;4.57;2.73;;;;;;;-4.13;76.38;97540.97;6249746;28;20229;-73
2022/01/08 03:10:41;;;;;;;6.70;3.57;;;;;;;-4.10;77.07;97538.34;6249995;28;20235;-74
2022/01/08 03:13:44;;;;;;;7.10;3.50;;;;;;;-4.11;76.64;97540.06;6252017;28;20465;-73
2022/01/08 03:16:46;;;;;;;5.60;3.03;;;;;;;-4.07;76.24;97535.66;6241076;28;20243;-73
2022/01/08 03:19:51;;;;;;;7.77;3.63;;;;;;;-4.05;76.38;97533.06;6243875;28;20246;-73
2022/01/08 03:23:01;;;;;;;5.33;3.43;;;;;;;-4.01;76.79;97535.53;6250907;28;20231;-72
2022/01/08 03:26:03;;;;;;;6.73;3.83;;;;;;;-3.96;76.43;97535.41;6252314;28;20231;-73
2022/01/08 03:29:05;;;;;;;5.00;2.83;;;;;;;-3.94;76.39;97531.91;6251740;28;20230;-73
2022/01/08 03:32:07;;;;;;;5.73;3.47;;;;;;;-3.93;76.60;97532.75;6254624;28;20247;-73
2022/01/08 03:35:10;;;;;;;5.67;3.60;;;;;;;-3.90;76.53;97530.97;6240536;28;20484;-73
2022/01/08 03:38:12;;;;;;;7.97;3.50;;;;;;;-3.88;75.84;97536.88;6231785;28;20231;-73
2022/01/08 03:41:14;;;;;;;4.70;3.00;;;;;;;-3.86;76.30;97534.28;6251003;28;20235;-73
2022/01/08 03:44:16;;;;;;;6.97;3.43;;;;;;;-3.85;76.21;97534.25;6256211;28;20235;-73
2022/01/08 03:47:41;;;;;;;4.50;3.20;;;;;;;-3.81;75.99;97538.44;6244898;28;20232;-74
2022/01/08 03:50:44;;;;;;;6.47;3.50;;;;;;;-3.77;76.57;97531.47;6241827;28;20758;-73
2022/01/08 03:53:46;;;;;;;6.77;3.40;;;;;;;-3.78;76.30;97533.19;6256691;28;20227;-73
2022/01/08 03:56:49;;;;;;;5.53;3.60;;;;;;;-3.77;76.31;97537.47;6255720;28;20243;-71
2022/01/08 03:59:51;;;;;;;5.70;3.40;;;;;;;-3.77;76.25;97531.47;6253387;28;20746;-73
2022/01/08 04:02:53;;;;;;;6.40;3.30;;;;;;;-3.77;76.41;97537.47;6255918;28;20704;-73
2022/01/08 04:05:55;;;;;;;6.53;3.63;;;;;;;-3.74;76.40;97526.22;6236768;28;20241;-73
2022/01/08 04:08:58;;;;;;;5.07;3.53;;;;;;;-3.72;76.24;97527.91;6257083;28;20243;-73
2022/01/08 04:12:01;;;;;;;4.13;3.03;;;;;;;-3.69;75.78;97526.13;6255049;28;20726;-73
2022/01/08 04:15:08;;;;;;;4.73;3.20;;;;;;;-3.64;76.34;97524.25;6255280;28;20280;-73
2022/01/08 04:18:11;;;;;;;8.13;4.10;;;;;;;-3.63;76.74;97525.94;6228310;28;20239;-72
2022/01/08 04:24:23;;;;;;;4.43;3.10;;;;;;;-3.58;76.31;97513.75;6254616;28;20229;-73
2022/01/08 04:27:25;;;;;;;6.83;3.17;;;;;;;-3.60;76.72;97519.00;6255929;28;20280;-74
2022/01/08 04:30:27;;;;;;;5.70;3.30;;;;;;;-3.61;77.07;97517.28;6253875;28;20279;-73
2022/01/08 04:33:29;;;;;;;5.00;3.33;;;;;;;-3.61;77.35;97516.44;6253500;28;20325;-71
2022/01/08 04:36:32;;;;;;;6.10;3.80;;;;;;;-3.60;76.85;97518.16;6230671;28;20223;-73
2022/01/08 04:39:34;;;;;;;7.33;4.17;;;;;;;-3.59;76.77;97512.09;6245492;28;20227;-74
2022/01/08 04:42:36;;;;;;;6.33;3.90;;;;;;;-3.58;76.60;97503.44;6255373;28;20218;-73
2022/01/08 04:45:38;;;;;;;5.77;3.40;;;;;;;-3.60;77.01;97506.09;6249050;28;20236;-72
2022/01/08 04:48:40;;;;;;;7.10;4.43;;;;;;;-3.62;76.88;97501.88;6229118;28;20228;-74
2022/01/08 04:51:42;;;;;;;5.80;3.37;;;;;;;-3.61;76.44;97506.97;6232256;28;20219;-73
2022/01/08 04:54:44;;;;;;;7.33;4.03;;;;;;;-3.60;77.26;97500.94;6254453;28;20222;-73
2022/01/08 04:57:46;;;;;;;8.30;3.40;;;;;;;-3.58;77.36;97498.28;6252853;28;20219;-72
2022/01/08 05:00:49;;;;;;;5.27;3.60;;;;;;;-3.56;77.47;97497.38;6254646;28;20230;-72
2022/01/08 05:03:51;;;;;;;6.77;4.70;;;;;;;-3.55;77.55;97496.50;6252963;28;20233;-73
2022/01/08 05:06:53;;;;;;;10.03;5.27;;;;;;;-3.51;78.26;97486.94;6254114;28;20702;-71
2022/01/08 05:09:55;;;;;;;7.03;4.90;;;;;;;-3.49;77.05;97486.00;6254208;28;20219;-74
2022/01/08 05:13:00;;;;;;;11.30;7.37;;;;;;;-3.45;78.01;97485.03;6253831;28;20223;-73
2022/01/08 05:16:02;;;;;;;12.87;8.43;;;;;;;-3.42;77.55;97478.94;6251706;28;20227;-72
2022/01/08 05:19:04;;;;;;;15.23;8.60;;;;;;;-3.39;77.73;97481.41;6253351;28;20752;-72
2022/01/08 05:22:07;;;;;;;12.67;7.00;;;;;;;-3.36;77.52;97484.75;6253888;28;20265;-73
2022/01/08 05:25:09;;;;;;;11.87;6.73;;;;;;;-3.32;77.93;97487.28;6254270;28;20230;-71
2022/01/08 05:28:11;;;;;;;9.07;4.63;;;;;;;-3.28;77.80;97487.13;6254022;28;20229;-73
2022/01/08 05:31:22;;;;;;;9.47;4.53;;;;;;;-3.24;78.01;97485.31;6254145;28;20219;-73
2022/01/08 05:34:24;;;;;;;4.97;3.93;;;;;;;-3.22;78.00;97479.22;6246101;28;20814;-73
2022/01/08 05:37:26;;;;;;;5.70;4.30;;;;;;;-3.19;78.16;97488.59;6228640;28;20933;-73
2022/01/08 05:40:28;;;;;;;6.40;3.80;;;;;;;-3.19;78.51;97481.69;6236630;28;20636;-73
2022/01/08 05:43:30;;;;;;;6.57;4.00;;;;;;;-3.18;77.85;97478.22;6253651;28;20227;-73
2022/01/08 05:46:32;;;;;;;9.13;4.47;;;;;;;-3.17;78.52;97479.91;6231140;28;20492;-73
2022/01/08 05:49:34;;;;;;;8.97;3.80;;;;;;;-3.16;78.00;97480.75;6231761;28;20228;-74
2022/01/08 05:52:36;;;;;;;5.63;3.57;;;;;;;-3.18;78.19;97475.66;6229501;28;20242;-74
2022/01/08 05:55:38;;;;;;;6.47;3.67;;;;;;;-3.15;78.52;97485.03;6247334;28;20235;-73
2022/01/08 05:58:40;;;;;;;4.83;3.40;;;;;;;-3.13;78.36;97488.44;6249367;28;20265;-73
2022/01/08 06:01:42;;;;;;;6.37;3.77;;;;;;;-3.12;78.51;97487.53;6253053;28;20238;-73
2022/01/08 06:04:44;;;;;;;5.90;3.57;;;;;;;-3.09;78.26;97474.53;6252753;28;20234;-73
2022/01/08 06:07:48;;;;;;;6.20;3.70;;;;;;;-3.09;78.35;97477.09;6251949;28;20223;-73
2022/01/08 06:10:50;;;;;;;7.03;3.73;;;;;;;-3.09;77.69;97483.13;6253193;28;20231;-71
2022/01/08 06:13:52;;;;;;;6.30;3.33;;;;;;;-3.07;78.22;97485.66;6233409;28;20231;-73
2022/01/08 06:16:54;;;;;;;6.37;3.57;;;;;;;-3.08;78.32;97479.66;6237265;28;20235;-73
2022/01/08 06:19:56;;;;;;;6.77;3.73;;;;;;;-3.05;78.17;97476.97;6247142;28;20223;-73
2022/01/08 06:22:58;;;;;;;5.87;3.87;;;;;;;-3.04;77.97;97480.41;6252885;28;20234;-73
2022/01/08 06:26:01;;;;;;;5.97;3.67;;;;;;;-3.02;78.43;97476.06;6252855;28;20643;-73
2022/01/08 06:29:03;;;;;;;5.53;3.23;;;;;;;-3.01;78.13;97470.00;6250600;28;20230;-73
2022/01/08 06:32:05;;;;;;;4.93;3.40;;;;;;;-3.04;77.96;97481.25;6253438;28;20215;-73
2022/01/08 06:35:07;;;;;;;8.17;4.17;;;;;;;-3.05;78.34;97473.56;6236924;28;20224;-73
2022/01/08 06:38:09;;;;;;;5.70;3.57;;;;;;;-3.06;77.79;97461.53;6228653;28;20310;-73
2022/01/08 06:41:11;;;;;;;7.97;3.67;;;;;;;-3.05;78.00;97473.56;6251424;28;20219;-73
2022/01/08 06:44:13;;;;;;;5.90;3.87;;;;;;;-3.05;78.21;97471.81;6250820;28;20233;-73
2022/01/08 06:47:15;;;;;;;6.33;3.67;;;;;;;-3.04;77.71;97463.19;6244583;28;20239;-74
2022/01/08 06:50:19;;;;;;;7.83;3.93;;;;;;;-3.04;77.91;97462.34;6226873;28;20277;-73
2022/01/08 06:53:21;;;;;;;8.73;4.33;;;;;;;-3.04;77.61;97465.78;6237906;28;20253;-73
2022/01/08 06:56:23;;;;;;;6.70;4.70;;;;;;;-3.02;78.08;97474.31;6253538;28;20234;-72
2022/01/08 06:59:25;;;;;;;10.03;5.47;;;;;;;-3.01;77.48;97470.84;6251428;28;20211;-73
2022/01/08 07:02:27;;;;;;;11.57;5.93;;;;;;;-3.00;77.94;97463.97;6252352;28;20762;-73
2022/01/08 07:05:29;;;;;;;10.90;5.67;;;;;;;-3.00;78.09;97459.63;6203472;28;20236;-70
2022/01/08 07:08:31;;;;;;;12.30;6.20;;;;;;;-3.00;77.52;97456.22;6252054;28;20233;-73
2022/01/08 07:11:33;;;;;;;13.87;7.07;;;;;;;-3.01;77.50;97455.38;6255377;28;20717;-73
2022/01/08 07:14:35;;;;;;;15.50;7.70;;;;;;;-3.02;77.53;97445.94;6256017;28;20242;-73
2022/01/08 07:17:38;;;;;;;11.47;6.53;;;;;;;-3.03;77.35;97441.66;6245945;28;20710;-73
2022/01/08 07:20:41;;;;;;;10.73;6.87;;;;;;;-3.04;77.51;97441.69;6255305;28;20223;-73
2022/01/08 07:23:42;;;;;;;15.63;7.63;;;;;;;-3.01;78.19;97439.88;6239297;28;20215;-73
2022/01/08 07:26:44;;;;;;;14.20;7.13;;;;;;;-2.95;77.51;97440.56;6256210;28;20381;-73
2022/01/08 07:29:46;;;;;;;13.57;8.10;;;;;;;-2.93;77.70;97439.63;6256121;28;20711;-73
2022/01/08 07:32:50;;;;;;;13.37;7.83;;;;;;;-2.88;77.51;97447.22;6256269;28;20242;-73
2022/01/08 07:35:52;;;;;;;16.50;7.70;;;;;;;-2.86;77.83;97445.44;6235521;28;20235;-73
2022/01/08 07:38:54;;;;;;;15.00;7.67;;;;;;;-2.82;77.25;97452.22;6248366;28;20242;-73
2022/01/08 07:41:56;;;;;;;11.33;7.60;;;;;;;-2.83;77.33;97450.53;6255915;28;20426;-73
2022/01/08 07:44:58;;;;;;;10.97;7.30;;;;;;;-2.83;77.07;97442.78;6256132;28;20239;-73
2022/01/08 07:48:00;;;;;;;13.90;8.20;;;;;;;-2.84;77.36;97430.75;6231110;28;20849;-73
2022/01/08 07:51:02;;;;;;;12.17;7.57;;;;;;;-2.83;77.41;97435.03;6233303;28;20223;-73
2022/01/08 07:54:04;;;;;;;12.47;7.33;;;;;;;-2.85;76.62;97431.66;6256066;28;20207;-73
2022/01/08 07:57:06;;;;;;;12.33;7.43;;;;;;;-2.85;77.45;97434.22;6230095;28;20231;-73
2022/01/08 08:00:09;;;;;;;11.10;6.70;;;;;;;-2.83;77.39;97430.72;6252066;28;20230;-72
2022/01/08 08:03:14;;;;;;;12.87;7.43;;;;;;;-2.78;77.16;97439.16;6256383;28;20239;-74
2022/01/08 08:06:16;;;;;;;10.70;6.93;;;;;;;-2.74;76.45;97445.91;6256714;28;20250;-74
2022/01/08 08:09:18;;;;;;;16.13;7.40;;;;;;;-2.72;76.42;97441.56;6253881;28;20222;-73
2022/01/08 08:12:20;;;;;;;11.10;6.67;;;;;;;-2.73;76.33;97433.84;6254331;28;20694;-73
2022/01/08 08:15:22;;;;;;;13.97;7.10;;;;;;;-2.71;76.59;97432.91;6252160;28;20719;-73
2022/01/08 08:18:26;;;;;;;12.97;7.37;;;;;;;-2.69;76.94;97440.59;6231775;28;20232;-72
2022/01/08 08:21:29;;;;;;;11.23;7.73;;;;;;;-2.58;76.78;97448.00;6254680;28;20223;-72
2022/01/08 08:24:30;;;;;;;11.10;6.93;;;;;;;-2.47;76.37;97451.94;6254771;28;20219;-71
2022/01/08 08:27:33;;;;;;;13.13;7.70;;;;;;;-2.32;75.75;97455.78;6254053;28;20242;-73
2022/01/08 08:30:35;;;;;;;17.10;7.47;;;;;;;-2.18;75.11;97457.88;6255335;28;20230;-73
2022/01/08 08:33:37;;;;;;;12.87;7.33;;;;;;;-2.02;74.80;97456.47;6256260;28;20253;-73
2022/01/08 08:36:39;;;;;;;15.07;8.57;;;;;;;-1.87;74.77;97461.97;6235746;28;20311;-73
2022/01/08 08:39:41;;;;;;;13.73;8.20;;;;;;;-1.76;74.52;97459.00;6241127;28;20434;-72
2022/01/08 08:42:43;;;;;;;13.10;7.80;;;;;;;-1.64;73.84;97462.91;6255898;28;20721;-72
2022/01/08 08:45:46;;;;;;;16.33;8.53;;;;;;;-1.44;73.56;97464.78;6248427;28;20285;-73
2022/01/08 08:48:48;;;;;;;17.17;9.80;;;;;;;-1.34;72.42;97458.38;6221476;28;20369;-73
2022/01/08 08:51:50;;;;;;;13.87;9.27;;;;;;;-1.18;72.29;97467.25;6230938;28;20704;-73
2022/01/08 08:54:52;;;;;;;19.37;8.20;;;;;;;-0.99;71.87;97464.81;6246878;28;20227;-73
2022/01/08 08:57:54;;;;;;;16.80;9.30;;;;;;;-0.90;71.60;97469.66;6252679;28;20215;-73
2022/01/08 09:00:56;;;;;;;14.00;8.53;;;;;;;-0.87;71.23;97474.72;6254206;28;20233;-73
2022/01/08 09:03:58;;;;;;;13.37;8.77;;;;;;;-0.84;71.32;97470.28;6253881;28;20227;-71
2022/01/08 09:07:01;;;;;;;16.93;9.53;;;;;;;-0.80;71.43;97466.63;6252846;28;20285;-73
2022/01/08 09:10:04;;;;;;;14.27;9.03;;;;;;;-0.75;71.10;97469.91;6252998;28;20227;-72
2022/01/08 09:13:06;;;;;;;10.63;7.83;;;;;;;-0.68;71.13;97464.47;6253886;28;20235;-72
2022/01/08 09:16:09;;;;;;;13.37;7.77;;;;;;;-0.66;70.66;97460.94;6242797;28;20242;-72
2022/01/08 09:19:11;;;;;;;15.73;8.43;;;;;;;-0.57;70.43;97465.75;6248116;28;20235;-72
2022/01/08 09:22:13;;;;;;;14.40;8.17;;;;;;;-0.57;70.33;97468.34;6252872;28;20304;-72
2022/01/08 09:25:16;;;;;;;14.10;8.60;;;;;;;-0.58;70.41;97464.06;6254686;28;20242;-72
2022/01/08 09:28:18;;;;;;;12.60;7.93;;;;;;;-0.56;70.67;97469.19;6254538;28;20316;-73
2022/01/08 09:31:20;;;;;;;12.30;8.67;;;;;;;-0.55;70.11;97468.28;6251791;28;20231;-72
2022/01/08 09:34:22;;;;;;;12.20;8.03;;;;;;;-0.55;69.93;97465.69;6245176;28;20233;-73
2022/01/08 09:37:25;;;;;;;13.90;8.77;;;;;;;-0.57;70.27;97460.56;6225144;28;20224;-72
2022/01/08 09:40:27;;;;;;;15.57;9.13;;;;;;;-0.62;69.81;97461.66;6249513;28;20226;-72
2022/01/08 09:43:29;;;;;;;9.60;7.80;;;;;;;-0.59;69.56;97454.59;6254290;28;20242;-72
2022/01/08 09:46:31;;;;;;;12.00;7.27;;;;;;;-0.51;69.76;97468.13;6242574;28;20247;-72
2022/01/08 09:49:34;;;;;;;12.20;7.87;;;;;;;-0.46;69.67;97462.72;6227916;28;20232;-72
2022/01/08 09:52:37;;;;;;;12.90;7.67;;;;;;;-0.49;68.69;97450.72;6238957;28;20323;-72
2022/01/08 09:55:39;;;;;;;13.53;8.30;;;;;;;-0.46;68.86;97448.03;6252189;28;20230;-72
2022/01/08 09:58:41;;;;;;;14.70;8.40;;;;;;;-0.40;68.91;97444.38;6253376;28;20218;-72
2022/01/08 10:01:53;;;;;;;13.30;8.10;;;;;;;-0.41;68.80;97442.69;6252508;28;20242;-72
2022/01/08 10:05:07;;;;;;;13.60;7.63;;;;;;;-0.43;69.25;97436.69;6253749;28;20235;-72
2022/01/08 10:08:13;;;;;;;14.10;8.70;;;;;;;-0.44;69.11;97440.19;6203293;28;20237;-72
2022/01/08 10:11:15;;;;;;;14.10;8.30;;;;;;;-0.44;68.59;97437.59;6246587;28;20728;-72
2022/01/08 10:14:29;;;;;;;16.37;9.13;;;;;;;-0.41;69.01;97427.97;6252472;28;20229;-72
2022/01/08 10:17:45;;;;;;;15.43;8.57;;;;;;;-0.40;69.00;97428.81;6247767;28;20292;-71
2022/01/08 10:20:50;;;;;;;15.10;9.17;;;;;;;-0.42;68.89;97426.28;6251697;28;20227;-72
2022/01/08 10:24:05;;;;;;;20.63;9.60;;;;;;;-0.43;68.64;97418.56;6250415;28;20714;-72
2022/01/08 10:27:07;;;;;;;16.73;9.70;;;;;;;-0.43;68.56;97416.81;6251763;28;20239;-72
2022/01/08 10:30:23;;;;;;;15.10;8.80;;;;;;;-0.47;68.30;97411.81;6252477;28;20226;-72
2022/01/08 10:33:25;;;;;;;14.27;8.80;;;;;;;-0.49;68.47;97411.84;6250082;28;20281;-72
2022/01/08 10:36:31;;;;;;;14.63;8.90;;;;;;;-0.51;68.10;97411.09;6227400;28;20227;-72
2022/01/08 10:39:39;;;;;;;15.50;8.63;;;;;;;-0.55;67.58;97403.50;6227202;28;20219;-72
2022/01/08 10:42:41;;;;;;;16.17;8.47;;;;;;;-0.53;67.67;97406.88;6225807;28;20628;-72
2022/01/08 10:45:43;;;;;;;12.13;8.07;;;;;;;-0.50;67.62;97409.34;6243181;28;20254;-72
2022/01/08 10:48:50;;;;;;;14.67;8.23;;;;;;;-0.46;67.41;97401.38;6229946;28;20234;-72
2022/01/08 10:51:57;;;;;;;15.60;8.27;;;;;;;-0.40;67.51;97392.53;6226627;28;20228;-71
2022/01/08 10:55:02;;;;;;;12.87;7.80;;;;;;;-0.29;67.48;97394.63;6240040;28;20231;-72
2022/01/08 10:58:04;;;;;;;14.37;8.17;;;;;;;-0.21;67.43;97393.44;6251912;28;20223;-72
2022/01/08 11:01:05;;;;;;;11.47;7.57;;;;;;;-0.10;66.49;97383.44;6249935;28;20214;-72
2022/01/08 11:04:10;;;;;;;14.07;8.17;;;;;;;0.03;66.68;97385.50;6251629;28;20753;-72
2022/01/08 11:07:16;;;;;;;14.47;8.63;;;;;;;0.05;66.43;97383.69;6251715;28;20222;-72
2022/01/08 11:10:20;;;;;;;10.57;7.80;;;;;;;0.04;66.16;97377.66;6250253;28;20230;-72
2022/01/08 11:13:22;;;;;;;12.03;7.20;;;;;;;0.11;66.10;97378.22;6251879;28;20318;-72
2022/01/08 11:16:25;;;;;;;15.50;8.50;;;;;;;0.16;65.57;97361.56;6240066;28;20711;-72
2022/01/08 11:19:27;;;;;;;11.17;7.53;;;;;;;0.25;65.84;97355.97;6242083;28;20239;-71
2022/01/08 11:22:31;;;;;;;14.60;7.63;;;;;;;0.28;65.59;97352.41;6251749;28;20231;-72
2022/01/08 11:25:36;;;;;;;14.00;9.03;;;;;;;0.35;65.58;97341.66;6252562;28;20227;-72
2022/01/08 11:28:43;;;;;;;12.07;7.70;;;;;;;0.40;65.34;97336.25;6251064;28;20227;-71
2022/01/08 11:31:48;;;;;;;11.37;7.50;;;;;;;0.36;65.27;97338.16;6232365;28;20277;-72
2022/01/08 11:34:51;;;;;;;16.50;7.97;;;;;;;0.30;65.67;97335.81;6240209;28;20231;-71
2022/01/08 11:37:56;;;;;;;13.57;8.37;;;;;;;0.22;66.38;97337.94;6226609;28;20228;-72
2022/01/08 11:40:59;;;;;;;16.53;8.80;;;;;;;0.18;66.28;97325.19;6249028;28;20223;-72
2022/01/08 11:44:03;;;;;;;12.80;8.33;;;;;;;0.22;65.62;97332.72;6252664;28;20234;-72
2022/01/08 11:47:07;;;;;;;11.60;7.77;;;;;;;0.38;65.77;97332.91;6232851;28;20236;-72
2022/01/08 11:50:10;;;;;;;11.40;8.37;;;;;;;0.46;65.22;97328.19;6225998;28;20275;-73
2022/01/08 11:53:21;;;;;;;12.33;7.97;;;;;;;0.60;65.30;97325.78;6238050;28;20231;-72
2022/01/08 11:56:39;;;;;;;16.37;9.00;;;;;;;0.78;64.18;97325.88;6255699;28;20224;-72
2022/01/08 11:59:41;;;;;;;14.10;9.03;;;;;;;1.08;64.20;97330.44;6255657;28;20725;-72
2022/01/08 12:02:43;;;;;;;13.03;8.10;;;;;;;1.30;63.92;97327.63;6253578;28;20225;-74
2022/01/08 12:05:45;;;;;;;11.67;7.77;;;;;;;1.48;63.16;97326.75;6255013;28;20272;-73
2022/01/08 12:09:07;;;;;;;14.00;8.30;;;;;;;1.72;62.89;97329.84;6253690;28;20246;-74
2022/01/08 12:12:09;;;;;;;12.13;7.70;;;;;;;1.97;62.27;97319.06;6252582;28;20215;-72
2022/01/08 12:15:13;;;;;;;13.00;7.90;;;;;;;2.14;61.25;97326.81;6254222;28;20762;-71
2022/01/08 12:18:27;;;;;;;11.73;8.17;;;;;;;2.45;60.95;97325.19;6247958;28;20243;-73
2022/01/08 12:21:42;;;;;;;10.63;7.57;;;;;;;2.72;59.97;97318.47;6253736;28;20215;-73
2022/01/08 12:24:49;;;;;;;10.03;7.13;;;;;;;2.91;59.46;97313.09;6254817;28;20250;-73
2022/01/08 12:27:51;;;;;;;13.10;9.10;;;;;;;3.04;57.97;97306.28;6254398;28;20242;-70
2022/01/08 12:30:53;;;;;;;11.63;8.00;;;;;;;3.18;58.58;97306.34;6253190;28;20219;-73
2022/01/08 12:34:28;;;;;;;8.33;6.67;;;;;;;3.34;58.26;97308.91;6248678;28;20699;-73
2022/01/08 12:37:39;;;;;;;10.90;7.37;;;;;;;3.62;57.89;97301.16;6229947;28;20712;-73
2022/01/08 12:40:42;;;;;;;11.53;7.43;;;;;;;3.63;56.36;97299.38;6234495;28;20698;-73
2022/01/08 12:43:44;;;;;;;11.50;7.40;;;;;;;3.63;56.12;97300.22;6254297;28;20233;-72
2022/01/08 12:46:46;;;;;;;12.70;7.20;;;;;;;3.56;55.69;97285.03;6240056;28;20708;-73
2022/01/08 12:50:25;;;;;;;10.63;7.70;;;;;;;3.71;55.36;97290.19;6229421;28;20710;-72
2022/01/08 12:53:29;;;;;;;10.50;7.07;;;;;;;4.03;53.93;97290.88;6229678;28;20722;-73
2022/01/08 12:56:31;;;;;;;12.03;7.40;;;;;;;4.39;53.60;97294.78;6251405;28;20236;-71
2022/01/08 12:59:37;;;;;;;10.90;7.53;;;;;;;5.31;50.84;97285.38;6252876;28;20722;-72
2022/01/08 13:02:46;;;;;;;9.47;7.03;;;;;;;5.63;50.06;97292.88;6253131;28;20270;-74
2022/01/08 13:05:49;;;;;;;12.00;7.63;;;;;;;5.05;51.92;97281.84;6252738;28;20224;-73
2022/01/08 13:08:53;;;;;;;8.10;6.47;;;;;;;4.34;53.18;97281.16;6252883;28;20252;-73
2022/01/08 13:11:56;;;;;;;9.93;6.80;;;;;;;3.62;55.19;97287.28;6254752;28;20223;-73
2022/01/08 13:15:03;;;;;;;11.10;7.43;;;;;;;3.18;56.24;97290.72;6252858;28;20275;-72
2022/01/08 13:18:24;;;;;;;10.40;7.20;;;;;;;2.85;57.21;97296.03;6204099;28;20234;-73
2022/01/08 13:21:32;;;;;;;12.67;7.80;;;;;;;2.59;57.51;97299.25;6251980;28;20253;-72
2022/01/08 13:24:40;;;;;;;11.23;7.20;;;;;;;2.44;58.63;97303.50;6253974;28;20244;-74
2022/01/08 13:27:49;;;;;;;12.00;7.20;;;;;;;2.26;59.60;97314.91;6252863;28;20243;-73
2022/01/08 13:30:53;;;;;;;11.07;6.83;;;;;;;2.12;59.48;97320.00;6254587;28;20232;-73
2022/01/08 13:33:56;;;;;;;11.00;7.50;;;;;;;2.15;59.55;97322.44;6249922;28;20246;-73
2022/01/08 13:37:02;;;;;;;11.60;7.57;;;;;;;2.28;59.44;97327.84;6228683;28;20231;-72
2022/01/08 13:40:07;;;;;;;9.23;7.07;;;;;;;2.30;58.68;97320.78;6240669;28;20692;-73
2022/01/08 13:43:09;;;;;;;13.20;7.47;;;;;;;2.35;58.08;97304.00;6253643;28;20654;-73
2022/01/08 13:46:10;;;;;;;12.20;6.47;;;;;;;2.24;57.85;97298.53;6230500;28;20301;-73
2022/01/08 13:49:13;;;;;;;11.83;7.00;;;;;;;2.21;57.57;97303.91;6232610;28;20235;-72
2022/01/08 13:52:22;;;;;;;13.07;7.57;;;;;;;2.26;58.17;97304.50;6229008;28;20286;-73
2022/01/08 13:55:45;;;;;;;12.30;7.67;;;;;;;1.79;59.66;97313.03;6251565;28;20550;-73
2022/01/08 13:58:47;;;;;;;14.90;8.40;;;;;;;1.60;60.22;97303.66;6253177;28;20242;-73
2022/01/08 14:01:49;;;;;;;13.23;7.30;;;;;;;1.25;61.48;97311.44;6252080;28;20230;-72
2022/01/08 14:04:53;;;;;;;12.30;7.13;;;;;;;1.03;62.11;97311.63;6253818;28;20238;-72
2022/01/08 14:08:07;;;;;;;11.80;7.67;;;;;;;0.88;62.43;97303.75;6252385;28;20235;-70
2022/01/08 14:11:20;;;;;;;11.80;7.57;;;;;;;0.81;62.61;97302.34;6253957;28;20238;-70
2022/01/08 14:14:22;;;;;;;12.10;6.63;;;;;;;0.79;62.96;97306.78;6253127;28;20231;-71
2022/01/08 14:17:28;;;;;;;10.47;6.83;;;;;;;0.73;63.58;97305.31;6237191;28;20298;-71
2022/01/08 14:20:30;;;;;;;9.60;7.03;;;;;;;0.64;63.92;97305.72;6234608;28;20326;-71
2022/01/08 14:23:32;;;;;;;12.67;7.37;;;;;;;0.60;64.98;97297.22;6253965;28;20227;-70
2022/01/08 14:26:34;;;;;;;11.43;7.37;;;;;;;0.53;65.34;97289.81;6252351;28;20242;-71
2022/01/08 14:29:47;;;;;;;11.77;7.10;;;;;;;0.43;66.06;97286.81;6253928;28;20223;-72
2022/01/08 14:32:49;;;;;;;11.87;7.50;;;;;;;0.36;65.92;97280.22;6253162;28;20670;-74
2022/01/08 14:36:00;;;;;;;11.07;8.00;;;;;;;0.30;66.46;97283.91;6230261;28;20406;-72
2022/01/08 14:39:02;;;;;;;12.87;8.13;;;;;;;0.29;66.50;97287.47;6241097;28;20237;-73
2022/01/08 14:42:06;;;;;;;10.13;7.47;;;;;;;0.28;67.26;97271.94;6252405;28;20226;-72